Terminal Aerodrome Forecast
Issued by NWS

Home | Current Version | Previous Version | Text Only | Print | Product List | Glossary On
Versions: 1 2 3 4 5 6 7 8 9 10 11 12 13 14 15
000
FTUS45 KGJT 210918 AAA
TAFRIL
TAF AMD
KRIL 210918Z 2109/2206 11007KT P6SM OVC050
     FM212000 25005KT P6SM BKN150 OVC250
     FM212300 22008KT P6SM BKN150 OVC250=

USA.gov is the U.S. government's official web portal to all federal, state and local government web resources and services.